Time;durP1;ratioP1;P1;durP2;ratioP2;P2;SDS_P1;SDS_P2;PMS_P1;PMS_P2;Temp;Humidity;BMP_temperature;BMP_pressure;BME280_temperature;BME280_humidity;BME280_pressure;Samples;Min_cycle;Max_cycle;Signal;HPM_P1;HPM_P2
2022/04/08 00:00:47;;;;;;;;;;;7.00;99.90;;;;;;5114650;28;20375;-70
2022/04/08 00:03:13;;;;;;;;;;;5.20;99.90;;;;;;5096371;28;20011;-72
2022/04/08 00:05:38;;;;;;;;;;;5.40;99.90;;;;;;5096340;28;19971;-71
2022/04/08 00:08:04;;;;;;;;;;;5.90;99.90;;;;;;5114325;28;19924;-70
2022/04/08 00:10:29;;;;;;;;;;;3.80;99.90;;;;;;5114196;28;19971;-70
2022/04/08 00:12:55;;;;;;;;;;;5.60;99.90;;;;;;5114241;28;19931;-71
2022/04/08 00:15:21;;;;;;;;;;;5.20;99.90;;;;;;5114670;28;20357;-73
2022/04/08 00:17:46;;;;;;;;;;;5.20;99.90;;;;;;5114358;28;19927;-70
2022/04/08 00:20:12;;;;;;;;;;;5.20;99.90;;;;;;5113974;28;19923;-73
2022/04/08 00:22:39;;;;;;;;;;;5.80;99.90;;;;;;5096152;28;19924;-70
2022/04/08 00:25:05;;;;;;;;;;;5.20;99.90;;;;;;5113883;28;19931;-72
2022/04/08 00:27:30;;;;;;;;;;;5.20;99.90;;;;;;5114050;28;20294;-70
2022/04/08 00:29:56;;;;;;;;;;;6.40;99.90;;;;;;5114262;28;19976;-70
2022/04/08 00:32:21;;;;;;;;;;;5.20;99.90;;;;;;5079465;28;19985;-70
2022/04/08 00:34:47;;;;;;;;;;;5.70;99.90;;;;;;5114093;28;19924;-70
2022/04/08 00:37:13;;;;;;;;;;;5.30;99.90;;;;;;5114948;28;20010;-70
2022/04/08 00:39:38;;;;;;;;;;;6.50;99.90;;;;;;5099992;28;20021;-70
2022/04/08 00:42:06;;;;;;;;;;;5.60;99.90;;;;;;5118116;28;19924;-70
2022/04/08 00:44:32;;;;;;;;;;;5.20;99.90;;;;;;5118040;28;19923;-70
2022/04/08 00:46:57;;;;;;;;;;;5.20;99.90;;;;;;5118264;28;19931;-71
2022/04/08 00:49:23;;;;;;;;;;;5.20;99.90;;;;;;5118265;28;19974;-71
2022/04/08 00:51:49;;;;;;;;;;;6.00;99.90;;;;;;5083056;28;19978;-72
2022/04/08 00:54:15;;;;;;;;;;;5.20;99.90;;;;;;5118004;28;19924;-69
2022/04/08 00:56:41;;;;;;;;;;;6.10;99.90;;;;;;5117948;28;19931;-71
2022/04/08 00:59:06;;;;;;;;;;;5.00;99.90;;;;;;5099616;28;19928;-70
2022/04/08 01:01:32;;;;;;;;;;;5.60;99.90;;;;;;5118027;28;19930;-70
2022/04/08 01:03:58;;;;;;;;;;;4.90;99.90;;;;;;5117946;28;19977;-70
2022/04/08 01:06:25;;;;;;;;;;;4.80;99.90;;;;;;5117842;28;19923;-71
2022/04/08 01:08:51;;;;;;;;;;;4.70;99.90;;;;;;5099523;28;19924;-71
2022/04/08 01:11:16;;;;;;;;;;;4.50;99.90;;;;;;5117679;28;19923;-70
2022/04/08 01:13:42;;;;;;;;;;;4.50;99.90;;;;;;5099573;28;19930;-70
2022/04/08 01:16:08;;;;;;;;;;;5.10;99.90;;;;;;5117784;28;19945;-73
2022/04/08 01:18:34;;;;;;;;;;;4.30;99.90;;;;;;5099844;28;20430;-69
2022/04/08 01:21:06;;;;;;;;;;;4.30;99.90;;;;;;5116504;27;19924;-70
2022/04/08 01:23:33;;;;;;;;;;;4.20;99.90;;;;;;5119783;27;19924;-72
2022/04/08 01:25:58;;;;;;;;;;;5.50;99.90;;;;;;5137817;27;20259;-70
2022/04/08 01:28:25;;;;;;;;;;;4.00;99.90;;;;;;5137919;27;19969;-70
2022/04/08 01:30:51;;;;;;;;;;;4.60;99.90;;;;;;5137772;27;19924;-71
2022/04/08 01:33:16;;;;;;;;;;;4.90;99.90;;;;;;5137961;27;19923;-71
2022/04/08 01:35:42;;;;;;;;;;;4.40;99.90;;;;;;5119920;27;19959;-70
2022/04/08 01:38:09;;;;;;;;;;;4.40;99.90;;;;;;5137743;27;20344;-70
2022/04/08 01:40:34;;;;;;;;;;;4.00;99.90;;;;;;5119535;27;19928;-70
2022/04/08 01:43:00;;;;;;;;;;;5.50;99.90;;;;;;5119502;27;20279;-70
2022/04/08 01:45:25;;;;;;;;;;;3.90;99.90;;;;;;5119247;27;20026;-71
2022/04/08 01:47:51;;;;;;;;;;;5.90;99.90;;;;;;5119311;27;19923;-70
2022/04/08 01:50:19;;;;;;;;;;;4.80;99.90;;;;;;5119379;27;19924;-71
2022/04/08 01:52:44;;;;;;;;;;;3.90;99.90;;;;;;5137452;27;20392;-70
2022/04/08 01:55:10;;;;;;;;;;;5.10;99.90;;;;;;5137365;27;19988;-71
2022/04/08 01:57:36;;;;;;;;;;;5.40;99.90;;;;;;5137332;27;20385;-70
2022/04/08 02:00:03;;;;;;;;;;;4.50;99.90;;;;;;5102231;27;19923;-70
2022/04/08 02:02:28;;;;;;;;;;;3.70;99.90;;;;;;5137476;27;20030;-69
2022/04/08 02:04:54;;;;;;;;;;;5.70;99.90;;;;;;5137309;27;20386;-70
2022/04/08 02:07:19;;;;;;;;;;;3.70;99.90;;;;;;5119231;27;19930;-69
2022/04/08 02:09:45;;;;;;;;;;;3.70;99.90;;;;;;5119030;27;19950;-72
2022/04/08 02:12:10;;;;;;;;;;;3.70;99.90;;;;;;5137047;27;19930;-70
2022/04/08 02:14:36;;;;;;;;;;;3.70;99.90;;;;;;5118619;27;19966;-70
2022/04/08 02:17:02;;;;;;;;;;;4.80;99.90;;;;;;5137232;27;19969;-70
2022/04/08 02:19:27;;;;;;;;;;;3.70;99.90;;;;;;5118046;27;19976;-70
2022/04/08 02:21:55;;;;;;;;;;;3.70;99.90;;;;;;5136062;27;20201;-70
2022/04/08 02:24:20;;;;;;;;;;;3.70;99.90;;;;;;5136843;27;19924;-70
2022/04/08 02:26:46;;;;;;;;;;;4.10;99.90;;;;;;5101395;27;19930;-71
2022/04/08 02:29:12;;;;;;;;;;;5.50;99.90;;;;;;5136608;27;19969;-70
2022/04/08 02:31:37;;;;;;;;;;;5.50;99.90;;;;;;5118182;27;19927;-70
2022/04/08 02:34:03;;;;;;;;;;;3.70;99.90;;;;;;5136849;27;20010;-70
2022/04/08 02:36:28;;;;;;;;;;;4.10;99.90;;;;;;5136685;27;19971;-71
2022/04/08 02:38:54;;;;;;;;;;;3.70;99.90;;;;;;5118535;27;19923;-72
2022/04/08 02:41:19;;;;;;;;;;;4.50;99.90;;;;;;5136597;27;19968;-69
2022/04/08 02:43:45;;;;;;;;;;;4.30;99.90;;;;;;5136430;27;19935;-70
2022/04/08 02:46:11;;;;;;;;;;;3.60;99.90;;;;;;5118044;27;19924;-73
2022/04/08 02:48:36;;;;;;;;;;;3.70;99.90;;;;;;5136487;27;20371;-70
2022/04/08 02:51:02;;;;;;;;;;;4.50;99.90;;;;;;5136198;27;19924;-70
2022/04/08 02:53:27;;;;;;;;;;;3.60;99.90;;;;;;5136325;27;19963;-70
2022/04/08 02:55:53;;;;;;;;;;;3.60;99.90;;;;;;5118162;27;19946;-70
2022/04/08 02:58:18;;;;;;;;;;;4.90;99.90;;;;;;5136194;27;19930;-70
2022/04/08 03:00:44;;;;;;;;;;;3.60;99.90;;;;;;5135502;27;19977;-70
2022/04/08 03:03:09;;;;;;;;;;;3.70;99.90;;;;;;5117992;27;19924;-72
2022/04/08 03:05:35;;;;;;;;;;;1.90;99.90;;;;;;5136091;27;19972;-70
2022/04/08 03:08:00;;;;;;;;;;;3.80;99.90;;;;;;5118023;27;19969;-70
2022/04/08 03:10:26;;;;;;;;;;;3.80;99.90;;;;;;5135928;27;19930;-69
2022/04/08 03:12:52;;;;;;;;;;;5.20;99.90;;;;;;5136015;27;20323;-70
2022/04/08 03:15:18;;;;;;;;;;;3.70;99.90;;;;;;5117863;27;19923;-70
2022/04/08 03:17:45;;;;;;;;;;;3.70;99.90;;;;;;5135623;27;19923;-69
2022/04/08 03:20:11;;;;;;;;;;;4.00;99.90;;;;;;5135710;27;19931;-70
2022/04/08 03:22:37;;;;;;;;;;;3.50;99.90;;;;;;5135695;27;19927;-70
2022/04/08 03:25:02;;;;;;;;;;;4.20;99.90;;;;;;5135641;27;19923;-70
2022/04/08 03:27:28;;;;;;;;;;;3.40;99.90;;;;;;5135638;27;19931;-70
2022/04/08 03:29:53;;;;;;;;;;;3.40;99.90;;;;;;5135550;27;19930;-71
2022/04/08 03:32:19;;;;;;;;;;;5.30;99.90;;;;;;5117010;27;20393;-71
2022/04/08 03:34:44;;;;;;;;;;;4.40;99.90;;;;;;5117487;27;20067;-68
2022/04/08 03:37:10;;;;;;;;;;;2.10;99.90;;;;;;5117282;27;19930;-70
2022/04/08 03:39:36;;;;;;;;;;;3.40;99.90;;;;;;5135479;27;19923;-69
2022/04/08 03:42:02;;;;;;;;;;;3.40;99.90;;;;;;5117411;27;19946;-70
2022/04/08 03:44:28;;;;;;;;;;;3.30;99.90;;;;;;5135252;27;20298;-72
2022/04/08 03:46:53;;;;;;;;;;;4.70;99.90;;;;;;5116789;27;19924;-70
2022/04/08 03:49:21;;;;;;;;;;;2.90;99.90;;;;;;5135154;27;19923;-69
2022/04/08 03:51:47;;;;;;;;;;;3.30;99.90;;;;;;5135350;27;19930;-70
2022/04/08 03:54:13;;;;;;;;;;;5.10;99.90;;;;;;5117176;27;19927;-73
2022/04/08 03:56:41;;;;;;;;;;;3.20;99.90;;;;;;5135133;27;19930;-72
2022/04/08 03:59:07;;;;;;;;;;;4.50;99.90;;;;;;5135031;27;20398;-69
2022/04/08 04:01:33;;;;;;;;;;;1.70;99.90;;;;;;5135021;27;19923;-69
2022/04/08 04:03:59;;;;;;;;;;;3.20;99.90;;;;;;5134919;27;19929;-72
2022/04/08 04:06:24;;;;;;;;;;;3.00;99.90;;;;;;5135031;27;19998;-72
2022/04/08 04:08:50;;;;;;;;;;;4.70;99.90;;;;;;5134874;27;19924;-71
2022/04/08 04:11:16;;;;;;;;;;;3.10;99.90;;;;;;5116463;28;19927;-70
2022/04/08 04:13:42;;;;;;;;;;;4.20;99.90;;;;;;5116162;28;19923;-71
2022/04/08 04:16:07;;;;;;;;;;;3.30;99.90;;;;;;5099757;27;20344;-69
2022/04/08 04:18:33;;;;;;;;;;;4.50;99.90;;;;;;5134716;27;19923;-70
2022/04/08 04:20:58;;;;;;;;;;;3.20;99.90;;;;;;5115999;28;19923;-70
2022/04/08 04:23:24;;;;;;;;;;;3.20;99.90;;;;;;5134879;27;19930;-70
2022/04/08 04:25:49;;;;;;;;;;;4.10;99.90;;;;;;5134611;27;20305;-70
2022/04/08 04:28:15;;;;;;;;;;;3.20;99.90;;;;;;5134752;28;19934;-70
2022/04/08 04:30:41;;;;;;;;;;;3.20;99.90;;;;;;5134590;28;20336;-72
2022/04/08 04:33:07;;;;;;;;;;;3.90;99.90;;;;;;5116503;28;19924;-72
2022/04/08 04:35:36;;;;;;;;;;;4.50;99.90;;;;;;5134826;28;20306;-69
2022/04/08 04:38:01;;;;;;;;;;;3.40;99.90;;;;;;5134759;28;19924;-69
2022/04/08 04:40:27;;;;;;;;;;;4.70;99.90;;;;;;5116269;28;20358;-71
2022/04/08 04:42:53;;;;;;;;;;;4.00;99.90;;;;;;5134517;28;19923;-70
2022/04/08 04:45:19;;;;;;;;;;;3.60;99.90;;;;;;5116301;28;19924;-71
2022/04/08 04:47:44;;;;;;;;;;;3.00;99.90;;;;;;5134507;28;19976;-70
2022/04/08 04:50:10;;;;;;;;;;;2.00;99.90;;;;;;5134359;28;20332;-70
2022/04/08 04:52:36;;;;;;;;;;;2.80;99.90;;;;;;5134606;28;19931;-72
2022/04/08 04:55:02;;;;;;;;;;;2.80;99.90;;;;;;5134492;28;19973;-69
2022/04/08 04:57:28;;;;;;;;;;;2.70;99.90;;;;;;5134523;28;19947;-71
2022/04/08 04:59:53;;;;;;;;;;;2.60;99.90;;;;;;5116061;28;20386;-72
2022/04/08 05:02:19;;;;;;;;;;;2.60;99.90;;;;;;5116381;28;19923;-72
2022/04/08 05:04:44;;;;;;;;;;;4.10;99.90;;;;;;5115873;28;19982;-70
2022/04/08 05:07:10;;;;;;;;;;;3.20;99.90;;;;;;5116467;28;19946;-70
2022/04/08 05:09:38;;;;;;;;;;;3.10;99.90;;;;;;5134356;28;19927;-70
2022/04/08 05:12:04;;;;;;;;;;;2.60;99.90;;;;;;5116308;28;20393;-70
2022/04/08 05:14:29;;;;;;;;;;;2.60;99.90;;;;;;5134432;28;19924;-70
2022/04/08 05:16:58;;;;;;;;;;;3.80;99.90;;;;;;5134261;28;19928;-72
2022/04/08 05:19:23;;;;;;;;;;;2.70;99.90;;;;;;5134089;28;19974;-70
2022/04/08 05:21:49;;;;;;;;;;;3.50;99.90;;;;;;5134126;28;19965;-69
2022/04/08 05:24:15;;;;;;;;;;;2.70;99.90;;;;;;5118350;27;19923;-70
2022/04/08 05:26:41;;;;;;;;;;;2.90;99.90;;;;;;5138025;27;20366;-73
2022/04/08 05:29:06;;;;;;;;;;;2.80;99.90;;;;;;5137969;27;20049;-70
2022/04/08 05:31:32;;;;;;;;;;;2.80;99.90;;;;;;5137891;27;19924;-69
2022/04/08 05:33:57;;;;;;;;;;;3.80;99.90;;;;;;5119695;27;19924;-69
2022/04/08 05:36:23;;;;;;;;;;;3.30;99.90;;;;;;5137756;27;19923;-70
2022/04/08 05:38:48;;;;;;;;;;;3.70;99.90;;;;;;5119644;27;19923;-70
2022/04/08 05:41:14;;;;;;;;;;;3.40;99.90;;;;;;5137815;27;20278;-70
2022/04/08 05:43:44;;;;;;;;;;;3.70;99.90;;;;;;5137864;27;20013;-72
2022/04/08 05:46:10;;;;;;;;;;;3.80;99.90;;;;;;5137571;27;19924;-67
2022/04/08 05:48:36;;;;;;;;;;;3.00;99.90;;;;;;5137520;27;19953;-69
2022/04/08 05:51:01;;;;;;;;;;;3.60;99.90;;;;;;5137075;27;19927;-72
2022/04/08 05:53:27;;;;;;;;;;;3.10;99.90;;;;;;5119531;27;19981;-69
2022/04/08 05:55:55;;;;;;;;;;;3.00;99.90;;;;;;5137387;27;19930;-70
2022/04/08 05:58:20;;;;;;;;;;;3.10;99.90;;;;;;5137601;27;19930;-70
2022/04/08 06:00:46;;;;;;;;;;;3.10;99.90;;;;;;5137413;27;19923;-73
2022/04/08 06:03:12;;;;;;;;;;;3.10;99.90;;;;;;5137335;27;19966;-70
2022/04/08 06:05:37;;;;;;;;;;;3.60;99.90;;;;;;5137076;27;19923;-70
2022/04/08 06:08:04;;;;;;;;;;;4.40;99.90;;;;;;5118986;27;19924;-70
2022/04/08 06:10:29;;;;;;;;;;;3.20;99.90;;;;;;5137183;27;20324;-72
2022/04/08 06:12:55;;;;;;;;;;;3.20;99.90;;;;;;5137396;27;19952;-70
2022/04/08 06:15:21;;;;;;;;;;;5.10;99.90;;;;;;5136995;27;20009;-70
2022/04/08 06:17:46;;;;;;;;;;;3.20;99.90;;;;;;5137068;27;19938;-72
2022/04/08 06:20:16;;;;;;;;;;;3.50;99.90;;;;;;5118169;27;19930;-70
2022/04/08 06:22:42;;;;;;;;;;;3.60;99.90;;;;;;5137071;27;19924;-71
2022/04/08 06:25:08;;;;;;;;;;;3.20;99.90;;;;;;5136817;27;19931;-72
2022/04/08 06:27:34;;;;;;;;;;;3.30;99.90;;;;;;5135826;27;20290;-70
2022/04/08 06:30:00;;;;;;;;;;;3.30;99.90;;;;;;5136769;27;19927;-70
2022/04/08 06:32:26;;;;;;;;;;;3.30;99.90;;;;;;5136615;27;20403;-70
2022/04/08 06:34:51;;;;;;;;;;;3.40;99.90;;;;;;5135393;27;20018;-70
2022/04/08 06:37:17;;;;;;;;;;;3.60;99.90;;;;;;5136477;27;19923;-69
2022/04/08 06:39:44;;;;;;;;;;;3.50;99.90;;;;;;5136736;27;20010;-72
2022/04/08 06:42:10;;;;;;;;;;;3.50;99.90;;;;;;5118606;27;19923;-72
2022/04/08 06:44:35;;;;;;;;;;;4.30;99.90;;;;;;5118201;27;20285;-70
2022/04/08 06:47:01;;;;;;;;;;;4.00;99.90;;;;;;5136311;27;20327;-70
2022/04/08 06:49:26;;;;;;;;;;;2.60;99.90;;;;;;5136281;27;19931;-69
2022/04/08 06:51:53;;;;;;;;;;;5.00;99.90;;;;;;5136253;27;19923;-71
2022/04/08 06:54:18;;;;;;;;;;;3.90;99.90;;;;;;5118311;27;19935;-70
2022/04/08 06:56:44;;;;;;;;;;;3.90;99.90;;;;;;5136435;27;20028;-70
2022/04/08 06:59:10;;;;;;;;;;;4.70;99.90;;;;;;5136193;27;19923;-70
2022/04/08 07:01:35;;;;;;;;;;;4.00;99.90;;;;;;5117939;27;19935;-73
2022/04/08 07:04:01;;;;;;;;;;;4.30;99.90;;;;;;5135965;27;19924;-70
2022/04/08 07:06:26;;;;;;;;;;;4.10;99.90;;;;;;5135866;27;19977;-70
2022/04/08 07:08:52;;;;;;;;;;;4.20;99.90;;;;;;5117767;27;19927;-70
2022/04/08 07:11:18;;;;;;;;;;;4.70;99.90;;;;;;5135969;27;19927;-70
2022/04/08 07:13:43;;;;;;;;;;;4.30;99.90;;;;;;5117862;27;19923;-70
2022/04/08 07:16:09;;;;;;;;;;;5.30;99.90;;;;;;5117809;27;19924;-71
2022/04/08 07:18:34;;;;;;;;;;;4.40;99.90;;;;;;5135682;27;19975;-69
2022/04/08 07:21:00;;;;;;;;;;;4.40;99.90;;;;;;5116835;27;20018;-69
2022/04/08 07:23:26;;;;;;;;;;;5.80;99.90;;;;;;5135406;27;19927;-72
2022/04/08 07:25:51;;;;;;;;;;;4.60;99.90;;;;;;5135639;27;19931;-71
2022/04/08 07:28:17;;;;;;;;;;;4.60;99.90;;;;;;5117170;27;20016;-73
2022/04/08 07:30:42;;;;;;;;;;;5.70;99.90;;;;;;5135638;27;20057;-71
2022/04/08 07:33:08;;;;;;;;;;;5.20;99.90;;;;;;5117074;27;19953;-72
2022/04/08 07:35:34;;;;;;;;;;;4.80;99.90;;;;;;5135532;27;19923;-71
2022/04/08 07:38:03;;;;;;;;;;;5.50;99.90;;;;;;5135235;27;20344;-72
2022/04/08 07:40:29;;;;;;;;;;;4.90;99.90;;;;;;5135413;27;19923;-69
2022/04/08 07:42:54;;;;;;;;;;;5.00;99.90;;;;;;5135402;27;20282;-70
2022/04/08 07:45:24;;;;;;;;;;;5.00;99.90;;;;;;5117132;27;19936;-70
2022/04/08 07:47:50;;;;;;;;;;;5.80;99.90;;;;;;5135223;27;19924;-70
2022/04/08 07:50:15;;;;;;;;;;;5.20;99.90;;;;;;5116906;27;19935;-70
2022/04/08 07:52:41;;;;;;;;;;;5.20;99.90;;;;;;5135362;27;19924;-74
2022/04/08 07:55:07;;;;;;;;;;;5.60;99.90;;;;;;5116883;27;19924;-71
2022/04/08 07:57:33;;;;;;;;;;;5.30;99.90;;;;;;5135137;27;19923;-70
2022/04/08 07:59:59;;;;;;;;;;;5.40;99.90;;;;;;5100066;27;19924;-71
2022/04/08 08:02:26;;;;;;;;;;;5.50;99.90;;;;;;5135084;27;20398;-70
2022/04/08 08:04:52;;;;;;;;;;;5.50;99.90;;;;;;5135004;27;19924;-69
2022/04/08 08:07:17;;;;;;;;;;;5.60;99.90;;;;;;5134835;27;19930;-70
2022/04/08 08:09:43;;;;;;;;;;;5.70;99.90;;;;;;5134665;27;20037;-74
2022/04/08 08:12:09;;;;;;;;;;;5.70;99.90;;;;;;5116911;27;19930;-72
2022/04/08 08:14:35;;;;;;;;;;;5.80;99.90;;;;;;5134729;27;20388;-71
2022/04/08 08:17:00;;;;;;;;;;;6.90;99.90;;;;;;5134642;27;19924;-70
2022/04/08 08:19:27;;;;;;;;;;;6.30;99.90;;;;;;5134604;27;19924;-71
2022/04/08 08:21:53;;;;;;;;;;;6.90;99.90;;;;;;5116605;27;19993;-71
2022/04/08 08:24:19;;;;;;;;;;;6.10;99.90;;;;;;5115439;27;20386;-71
2022/04/08 08:26:44;;;;;;;;;;;6.50;99.90;;;;;;5134614;27;20034;-71
2022/04/08 08:29:10;;;;;;;;;;;6.40;99.90;;;;;;5116067;28;19930;-70
2022/04/08 08:31:35;;;;;;;;;;;7.30;99.90;;;;;;5134677;28;19928;-69
2022/04/08 08:34:01;;;;;;;;;;;7.30;99.90;;;;;;5134632;28;20331;-71
2022/04/08 08:36:26;;;;;;;;;;;6.50;99.90;;;;;;5116222;28;19923;-68
2022/04/08 08:38:52;;;;;;;;;;;6.40;99.90;;;;;;5134583;28;20285;-74
2022/04/08 08:41:18;;;;;;;;;;;7.00;99.90;;;;;;5134603;28;19927;-70
2022/04/08 08:43:44;;;;;;;;;;;6.30;99.90;;;;;;5134646;28;19923;-70
2022/04/08 08:46:10;;;;;;;;;;;6.30;99.90;;;;;;5116284;28;20438;-70
2022/04/08 08:48:37;;;;;;;;;;;6.40;99.90;;;;;;5134513;28;19928;-73
2022/04/08 08:51:05;;;;;;;;;;;6.40;99.90;;;;;;5134381;28;20378;-73
2022/04/08 08:53:31;;;;;;;;;;;7.30;99.90;;;;;;5116209;28;19929;-70
2022/04/08 08:55:56;;;;;;;;;;;6.30;99.90;;;;;;5134249;28;19923;-73
2022/04/08 08:58:23;;;;;;;;;;;6.20;99.90;;;;;;5117183;27;19953;-71
2022/04/08 09:00:48;;;;;;;;;;;6.20;99.90;;;;;;5138579;27;19930;-72
2022/04/08 09:03:14;;;;;;;;;;;6.20;99.90;;;;;;5139635;27;19923;-71
2022/04/08 09:05:44;;;;;;;;;;;6.20;99.90;;;;;;5141448;27;20431;-71
2022/04/08 09:08:10;;;;;;;;;;;6.30;99.90;;;;;;5151168;27;19977;-69
2022/04/08 09:10:47;;;;;;;;;;;6.40;99.90;;;;;;5158893;27;19974;-73
2022/04/08 09:13:16;;;;;;;;;;;6.50;99.90;;;;;;5159122;27;19931;-72
2022/04/08 09:15:51;;;;;;;;;;;6.50;99.90;;;;;;5158128;27;20308;-71
2022/04/08 09:18:16;;;;;;;;;;;6.70;99.90;;;;;;5129861;27;19927;-71
2022/04/08 09:20:49;;;;;;;;;;;6.80;99.90;;;;;;5158596;27;19923;-72
2022/04/08 09:23:16;;;;;;;;;;;6.80;99.90;;;;;;5158446;27;20390;-70
2022/04/08 09:25:42;;;;;;;;;;;6.90;99.90;;;;;;5158721;27;19923;-70
2022/04/08 09:28:09;;;;;;;;;;;7.10;99.90;;;;;;5158770;27;20301;-70
2022/04/08 09:30:35;;;;;;;;;;;7.00;99.90;;;;;;5158714;27;19926;-70
2022/04/08 09:33:18;;;;;;;;;;;8.10;99.90;;;;;;5139974;27;19987;-70
2022/04/08 09:35:44;;;;;;;;;;;7.30;99.90;;;;;;5157885;27;19923;-71
2022/04/08 09:38:10;;;;;;;;;;;7.80;99.90;;;;;;5139612;27;20357;-73
2022/04/08 09:40:36;;;;;;;;;;;7.50;99.90;;;;;;5139946;27;19927;-70
2022/04/08 09:43:02;;;;;;;;;;;7.40;99.90;;;;;;5140079;27;19976;-71
2022/04/08 09:45:30;;;;;;;;;;;7.40;99.90;;;;;;5158408;27;20335;-71
2022/04/08 09:47:59;;;;;;;;;;;7.30;99.90;;;;;;5158287;27;19995;-70
2022/04/08 09:50:26;;;;;;;;;;;5.80;99.90;;;;;;5158165;27;19923;-75
2022/04/08 09:52:51;;;;;;;;;;;7.80;99.90;;;;;;5122747;27;19930;-71
2022/04/08 09:55:17;;;;;;;;;;;7.40;99.90;;;;;;5139804;27;19923;-72
2022/04/08 09:57:45;;;;;;;;;;;7.50;99.90;;;;;;5139859;27;19946;-71
2022/04/08 10:00:11;;;;;;;;;;;7.80;99.90;;;;;;5158096;27;19930;-73
2022/04/08 10:02:40;;;;;;;;;;;7.90;99.90;;;;;;5158008;27;19923;-73
2022/04/08 10:05:06;;;;;;;;;;;8.00;99.90;;;;;;5157696;27;19934;-71
2022/04/08 10:07:32;;;;;;;;;;;7.90;99.90;;;;;;5157922;27;19923;-71
2022/04/08 10:10:20;;;;;;;;;;;8.10;99.90;;;;;;5120746;27;19923;-71
2022/04/08 10:13:04;;;;;;;;;;;7.50;99.90;;;;;;5138934;27;19934;-71
2022/04/08 10:15:34;;;;;;;;;;;7.10;99.90;;;;;;5139493;27;19976;-70
2022/04/08 10:18:03;;;;;;;;;;;7.50;99.90;;;;;;5157825;27;19934;-70
2022/04/08 10:20:32;;;;;;;;;;;8.20;99.90;;;;;;5156328;27;19923;-70
2022/04/08 10:23:09;;;;;;;;;;;6.40;99.90;;;;;;5156829;27;19930;-70
2022/04/08 10:25:37;;;;;;;;;;;6.40;99.90;;;;;;5156838;27;19923;-71
2022/04/08 10:28:03;;;;;;;;;;;6.30;99.90;;;;;;5138825;27;19930;-73
2022/04/08 10:30:32;;;;;;;;;;;6.20;99.90;;;;;;5157164;27;19923;-73
2022/04/08 10:32:59;;;;;;;;;;;6.20;99.90;;;;;;5156618;27;20386;-71
2022/04/08 10:35:25;;;;;;;;;;;6.20;99.90;;;;;;5157395;27;19923;-74
2022/04/08 10:38:09;;;;;;;;;;;6.10;99.90;;;;;;5157179;27;19923;-71
2022/04/08 10:40:37;;;;;;;;;;;5.80;99.90;;;;;;5138706;27;20267;-73
2022/04/08 10:43:05;;;;;;;;;;;5.80;99.90;;;;;;5157001;27;20442;-70
2022/04/08 10:45:31;;;;;;;;;;;5.80;99.90;;;;;;5157048;27;20022;-74
2022/04/08 10:48:01;;;;;;;;;;;5.80;99.90;;;;;;5156848;27;19927;-70
2022/04/08 10:50:31;;;;;;;;;;;6.00;99.90;;;;;;5157215;27;19929;-72
2022/04/08 10:53:03;;;;;;;;;;;6.20;99.90;;;;;;5156815;27;19923;-72
2022/04/08 10:55:28;;;;;;;;;;;6.40;99.90;;;;;;5156632;27;20026;-71
2022/04/08 10:57:56;;;;;;;;;;;6.70;99.90;;;;;;5156918;27;20240;-74
2022/04/08 11:00:23;;;;;;;;;;;7.00;99.90;;;;;;5156598;27;19927;-71
2022/04/08 11:02:52;;;;;;;;;;;7.20;99.90;;;;;;5156818;27;19930;-73
2022/04/08 11:05:18;;;;;;;;;;;7.40;99.90;;;;;;5137513;27;19930;-71
2022/04/08 11:07:44;;;;;;;;;;;7.60;99.90;;;;;;5156681;27;19923;-72
2022/04/08 11:10:11;;;;;;;;;;;7.80;99.90;;;;;;5156106;27;20389;-73
2022/04/08 11:12:46;;;;;;;;;;;7.90;99.90;;;;;;5156572;27;19923;-71
2022/04/08 11:15:13;;;;;;;;;;;8.00;99.90;;;;;;5138024;27;20022;-71
2022/04/08 11:17:39;;;;;;;;;;;8.10;99.90;;;;;;5156450;27;19923;-72
2022/04/08 11:20:09;;;;;;;;;;;8.10;99.90;;;;;;5156355;27;20420;-74
2022/04/08 11:22:41;;;;;;;;;;;7.90;99.90;;;;;;5155942;27;20353;-74
2022/04/08 11:25:08;;;;;;;;;;;7.80;99.90;;;;;;5155468;27;19927;-72
2022/04/08 11:27:34;;;;;;;;;;;7.80;99.90;;;;;;5155726;27;19924;-74
2022/04/08 11:30:00;;;;;;;;;;;8.30;99.90;;;;;;5156122;27;19930;-70
2022/04/08 11:32:30;;;;;;;;;;;7.90;99.90;;;;;;5156111;27;19950;-71
2022/04/08 11:34:56;;;;;;;;;;;8.00;99.90;;;;;;5155982;27;19967;-70
2022/04/08 11:37:26;;;;;;;;;;;8.20;99.90;;;;;;5155894;27;20316;-71
2022/04/08 11:39:58;;;;;;;;;;;8.20;99.90;;;;;;5156215;27;19923;-75
2022/04/08 11:42:24;;;;;;;;;;;8.30;99.90;;;;;;5155907;27;20267;-71
2022/04/08 11:44:51;;;;;;;;;;;8.30;99.90;;;;;;5154552;27;19923;-73
2022/04/08 11:47:17;;;;;;;;;;;8.20;99.90;;;;;;5155697;27;20305;-71
2022/04/08 11:49:44;;;;;;;;;;;8.30;99.90;;;;;;5136858;27;19938;-73
2022/04/08 11:52:10;;;;;;;;;;;8.30;99.90;;;;;;5155719;27;19945;-75
2022/04/08 11:54:40;;;;;;;;;;;8.30;99.90;;;;;;5137301;27;19923;-70
2022/04/08 11:57:07;;;;;;;;;;;8.30;99.90;;;;;;5155654;27;19927;-72
2022/04/08 11:59:34;;;;;;;;;;;8.30;99.90;;;;;;5137166;27;19923;-71
2022/04/08 12:02:00;;;;;;;;;;;8.40;99.90;;;;;;5154954;27;19930;-70
2022/04/08 12:04:26;;;;;;;;;;;7.10;99.90;;;;;;5155633;27;20008;-75
2022/04/08 12:06:51;;;;;;;;;;;8.30;99.90;;;;;;5155450;27;20389;-72
2022/04/08 12:09:18;;;;;;;;;;;8.20;99.90;;;;;;5155645;27;19929;-70
2022/04/08 12:11:44;;;;;;;;;;;8.30;99.90;;;;;;5155362;27;19937;-73
2022/04/08 12:14:10;;;;;;;;;;;7.90;99.90;;;;;;5155300;27;19976;-72
2022/04/08 12:16:36;;;;;;;;;;;8.20;99.90;;;;;;5155358;27;20366;-71
2022/04/08 12:19:04;;;;;;;;;;;7.80;99.90;;;;;;5137165;27;19923;-74
2022/04/08 12:21:31;;;;;;;;;;;7.80;99.90;;;;;;5136389;27;19923;-73
2022/04/08 12:23:58;;;;;;;;;;;7.80;99.90;;;;;;5155414;27;20341;-70
2022/04/08 12:26:31;;;;;;;;;;;7.70;99.90;;;;;;5155314;27;20370;-70
2022/04/08 12:29:13;;;;;;;;;;;7.80;99.90;;;;;;5155347;27;19929;-71
2022/04/08 12:31:46;;;;;;;;;;;7.80;99.90;;;;;;5154979;27;19930;-70
2022/04/08 12:34:12;;;;;;;;;;;7.80;99.90;;;;;;5154157;27;19946;-72
2022/04/08 12:36:38;;;;;;;;;;;7.80;99.90;;;;;;5136965;27;20365;-71
2022/04/08 12:39:04;;;;;;;;;;;7.80;99.90;;;;;;5119902;27;19930;-72
2022/04/08 12:41:29;;;;;;;;;;;8.10;99.90;;;;;;5155368;27;19924;-72
2022/04/08 12:43:57;;;;;;;;;;;8.10;99.90;;;;;;5135934;27;19923;-72
2022/04/08 12:46:23;;;;;;;;;;;8.20;99.90;;;;;;5154816;27;19923;-73
2022/04/08 12:48:48;;;;;;;;;;;9.00;99.90;;;;;;5136789;27;20013;-73
2022/04/08 12:51:14;;;;;;;;;;;8.50;99.90;;;;;;5154573;27;19927;-74
2022/04/08 12:53:40;;;;;;;;;;;9.90;99.90;;;;;;5137004;27;20285;-72
2022/04/08 12:56:06;;;;;;;;;;;8.70;99.90;;;;;;5155023;27;20540;-72
2022/04/08 12:58:31;;;;;;;;;;;8.80;99.90;;;;;;5154990;27;20014;-71
2022/04/08 13:00:57;;;;;;;;;;;8.90;99.90;;;;;;5154920;27;19923;-72
2022/04/08 13:03:23;;;;;;;;;;;9.30;99.90;;;;;;5154769;27;19935;-75
2022/04/08 13:05:49;;;;;;;;;;;7.70;99.90;;;;;;5154670;27;19930;-73
2022/04/08 13:08:15;;;;;;;;;;;9.10;99.90;;;;;;5155086;27;19923;-72
2022/04/08 13:10:42;;;;;;;;;;;9.00;99.90;;;;;;5154597;27;20377;-73
2022/04/08 13:13:08;;;;;;;;;;;8.90;99.90;;;;;;5154780;27;19930;-72
2022/04/08 13:15:34;;;;;;;;;;;8.80;99.90;;;;;;5154831;27;19968;-73
2022/04/08 13:18:01;;;;;;;;;;;8.60;99.90;;;;;;5154748;27;20013;-71
2022/04/08 13:20:27;;;;;;;;;;;8.50;99.90;;;;;;5154614;27;19930;-72
2022/04/08 13:22:52;;;;;;;;;;;8.40;99.90;;;;;;5154893;27;20013;-74
2022/04/08 13:25:20;;;;;;;;;;;9.40;99.90;;;;;;5154735;27;20392;-75
2022/04/08 13:27:46;;;;;;;;;;;8.50;99.90;;;;;;5154613;27;19933;-74
2022/04/08 13:30:14;;;;;;;;;;;8.60;99.90;;;;;;5154603;27;19923;-71
2022/04/08 13:32:40;;;;;;;;;;;8.80;99.90;;;;;;5154313;27;20343;-73
2022/04/08 13:35:07;;;;;;;;;;;8.80;99.90;;;;;;5154353;27;19997;-71
2022/04/08 13:37:35;;;;;;;;;;;8.80;99.90;;;;;;5154621;27;19926;-72
2022/04/08 13:40:02;;;;;;;;;;;8.80;99.90;;;;;;5135954;27;19970;-73
2022/04/08 13:42:28;;;;;;;;;;;8.70;99.90;;;;;;5154451;27;19930;-72
2022/04/08 13:44:54;;;;;;;;;;;8.80;99.90;;;;;;5156148;27;19923;-74
2022/04/08 13:47:20;;;;;;;;;;;8.70;99.90;;;;;;5139534;27;19923;-72
2022/04/08 13:49:46;;;;;;;;;;;8.80;99.90;;;;;;5139560;27;19927;-73
2022/04/08 13:52:13;;;;;;;;;;;8.80;99.90;;;;;;5158087;27;19930;-73
2022/04/08 13:54:39;;;;;;;;;;;8.80;99.90;;;;;;5139477;27;20378;-75
2022/04/08 13:57:05;;;;;;;;;;;8.90;99.90;;;;;;5158159;27;19931;-71
2022/04/08 13:59:30;;;;;;;;;;;8.90;99.90;;;;;;5139819;27;20412;-73
2022/04/08 14:01:56;;;;;;;;;;;9.20;99.90;;;;;;5157882;27;19927;-72
2022/04/08 14:04:22;;;;;;;;;;;8.90;99.90;;;;;;5139577;27;19929;-75
2022/04/08 14:06:48;;;;;;;;;;;8.80;99.90;;;;;;5157872;27;19923;-75
2022/04/08 14:09:13;;;;;;;;;;;8.80;99.90;;;;;;5136577;27;19931;-71
2022/04/08 14:11:39;;;;;;;;;;;8.80;99.90;;;;;;5157513;27;19923;-72
2022/04/08 14:14:05;;;;;;;;;;;8.80;99.90;;;;;;5139107;27;20293;-72
2022/04/08 14:16:31;;;;;;;;;;;8.80;99.90;;;;;;5157538;27;19923;-73
2022/04/08 14:18:57;;;;;;;;;;;8.90;99.90;;;;;;5139260;27;19923;-72
2022/04/08 14:21:23;;;;;;;;;;;8.90;99.90;;;;;;5156918;27;20444;-73
2022/04/08 14:23:48;;;;;;;;;;;8.90;99.90;;;;;;5139340;27;19969;-72
2022/04/08 14:26:14;;;;;;;;;;;9.00;99.90;;;;;;5155658;27;19962;-74